Time;durP1;ratioP1;P1;durP2;ratioP2;P2;SDS_P1;SDS_P2;PMS_P1;PMS_P2;Temp;Humidity;BMP_temperature;BMP_pressure;BME280_temperature;BME280_humidity;BME280_pressure;Samples;Min_cycle;Max_cycle;Signal;HPM_P1;HPM_P2
2021/06/27 00:00:43;;;;;;;20.12;6.28;;;;;;;;;;143728;564;47022;-86
2021/06/27 00:03:11;;;;;;;30.62;7.55;;;;;;;;;;143725;564;46018;-86
2021/06/27 00:05:38;;;;;;;28.75;7.07;;;;;;;;;;143729;565;47012;-86
2021/06/27 00:08:07;;;;;;;32.75;8.82;;;;;;;;;;143725;717;47021;-84
2021/06/27 00:10:40;;;;;;;22.00;6.93;;;;;;;;;;143728;587;47010;-85
2021/06/27 00:13:08;;;;;;;28.10;7.12;;;;;;;;;;143726;571;46015;-85
2021/06/27 00:15:38;;;;;;;26.90;7.03;;;;;;;;;;143731;625;46013;-86
2021/06/27 00:18:07;;;;;;;28.62;7.70;;;;;;;;;;143729;564;46020;-87
2021/06/27 00:20:36;;;;;;;20.15;6.47;;;;;;;;;;143730;595;46012;-87
2021/06/27 00:23:04;;;;;;;24.67;7.37;;;;;;;;;;143728;843;46019;-85
2021/06/27 00:25:32;;;;;;;31.15;6.68;;;;;;;;;;143732;717;46012;-85
2021/06/27 00:28:00;;;;;;;28.20;7.10;;;;;;;;;;143725;924;46020;-87
2021/06/27 00:30:28;;;;;;;18.95;7.00;;;;;;;;;;143729;564;46012;-87
2021/06/27 00:32:55;;;;;;;32.85;7.22;;;;;;;;;;143732;599;46012;-87
2021/06/27 00:35:23;;;;;;;19.67;6.90;;;;;;;;;;143730;753;46012;-87
2021/06/27 00:37:53;;;;;;;27.40;6.65;;;;;;;;;;143722;574;47021;-87
2021/06/27 00:40:22;;;;;;;22.52;7.20;;;;;;;;;;143731;638;46010;-86
2021/06/27 00:42:50;;;;;;;27.17;6.10;;;;;;;;;;143731;915;46018;-86
2021/06/27 00:45:19;;;;;;;26.85;7.90;;;;;;;;;;143731;582;46012;-86
2021/06/27 00:47:48;;;;;;;27.35;7.43;;;;;;;;;;143727;595;47020;-84
2021/06/27 00:50:23;;;;;;;24.98;8.18;;;;;;;;;;143731;656;46013;-85
2021/06/27 00:52:50;;;;;;;19.08;6.75;;;;;;;;;;143731;780;46019;-85
2021/06/27 00:55:22;;;;;;;20.80;7.37;;;;;;;;;;143730;579;46012;-85
2021/06/27 00:57:51;;;;;;;26.08;7.10;;;;;;;;;;143727;648;47019;-85
2021/06/27 01:00:27;;;;;;;20.02;6.32;;;;;;;;;;143729;575;46013;-85
2021/06/27 01:02:54;;;;;;;23.20;7.60;;;;;;;;;;143722;582;46018;-87
2021/06/27 01:05:28;;;;;;;23.85;7.93;;;;;;;;;;143733;596;46012;-86
2021/06/27 01:07:55;;;;;;;27.20;7.78;;;;;;;;;;143729;564;46042;-86
2021/06/27 01:10:28;;;;;;;30.95;7.00;;;;;;;;;;143730;565;46012;-86
2021/06/27 01:12:55;;;;;;;24.80;7.07;;;;;;;;;;143733;786;46018;-87
2021/06/27 01:15:23;;;;;;;19.92;8.13;;;;;;;;;;143732;581;46012;-86
2021/06/27 01:17:52;;;;;;;21.27;7.30;;;;;;;;;;143732;708;46020;-86
2021/06/27 01:20:22;;;;;;;21.02;6.05;;;;;;;;;;143729;569;46012;-86
2021/06/27 01:22:50;;;;;;;22.87;7.28;;;;;;;;;;143731;585;46019;-86
2021/06/27 01:25:22;;;;;;;24.90;7.55;;;;;;;;;;143731;581;46012;-86
2021/06/27 01:27:53;;;;;;;20.03;6.37;;;;;;;;;;143722;972;47020;-88
2021/06/27 01:30:30;;;;;;;22.40;6.65;;;;;;;;;;143732;633;45921;-88
2021/06/27 01:33:00;;;;;;;29.35;6.20;;;;;;;;;;143733;984;46018;-88
2021/06/27 01:35:28;;;;;;;28.52;6.75;;;;;;;;;;143732;588;46013;-87
2021/06/27 01:37:57;;;;;;;29.50;7.18;;;;;;;;;;143730;579;46021;-86
2021/06/27 01:40:26;;;;;;;16.12;6.22;;;;;;;;;;143730;720;46012;-85
2021/06/27 01:43:14;;;;;;;27.65;6.97;;;;;;;;;;143730;738;46019;-87
2021/06/27 01:45:47;;;;;;;21.95;6.87;;;;;;;;;;143734;645;46012;-86
2021/06/27 01:48:15;;;;;;;22.30;6.93;;;;;;;;;;143730;667;47020;-86
2021/06/27 01:50:43;;;;;;;20.90;6.68;;;;;;;;;;143729;569;46023;-85
2021/06/27 01:53:17;;;;;;;27.50;7.72;;;;;;;;;;143723;920;46018;-86
2021/06/27 01:55:44;;;;;;;34.97;6.97;;;;;;;;;;143731;569;47010;-86
2021/06/27 01:58:12;;;;;;;19.77;6.95;;;;;;;;;;143729;616;46041;-85
2021/06/27 02:00:40;;;;;;;26.67;6.70;;;;;;;;;;143730;572;46012;-86
2021/06/27 02:03:15;;;;;;;20.12;5.32;;;;;;;;;;143730;581;46018;-86
2021/06/27 02:05:41;;;;;;;24.27;5.40;;;;;;;;;;143733;619;46013;-85
2021/06/27 02:08:08;;;;;;;26.37;6.43;;;;;;;;;;143728;592;47021;-86
2021/06/27 02:10:35;;;;;;;24.42;6.15;;;;;;;;;;143731;566;46010;-88
2021/06/27 02:13:04;;;;;;;22.25;7.15;;;;;;;;;;143730;889;46019;-86
2021/06/27 02:15:32;;;;;;;18.30;6.85;;;;;;;;;;143731;914;46012;-86
2021/06/27 02:18:35;;;;;;;20.85;6.82;;;;;;;;;;143723;834;47020;-86
2021/06/27 02:21:16;;;;;;;27.67;8.32;;;;;;;;;;143731;582;46023;-88
2021/06/27 02:23:43;;;;;;;26.75;6.68;;;;;;;;;;143731;590;46018;-88
2021/06/27 02:26:11;;;;;;;21.48;5.87;;;;;;;;;;143732;968;46012;-86
2021/06/27 02:28:39;;;;;;;28.80;6.90;;;;;;;;;;143731;564;47019;-85
2021/06/27 02:31:08;;;;;;;29.02;7.47;;;;;;;;;;143731;566;46012;-86
2021/06/27 02:33:39;;;;;;;20.17;6.17;;;;;;;;;;143729;594;47018;-87
2021/06/27 02:36:07;;;;;;;18.48;6.03;;;;;;;;;;143732;564;46013;-86
2021/06/27 02:38:34;;;;;;;29.40;7.25;;;;;;;;;;143732;938;46039;-86
2021/06/27 02:41:00;;;;;;;20.30;7.12;;;;;;;;;;143731;973;46022;-87
2021/06/27 02:43:27;;;;;;;24.20;7.25;;;;;;;;;;143724;870;46019;-86
2021/06/27 02:45:54;;;;;;;28.58;6.72;;;;;;;;;;143733;598;46012;-86
2021/06/27 02:48:21;;;;;;;26.40;6.25;;;;;;;;;;143730;819;47020;-86
2021/06/27 02:50:48;;;;;;;25.77;6.97;;;;;;;;;;143732;791;46022;-87
2021/06/27 02:53:16;;;;;;;16.23;5.80;;;;;;;;;;143731;889;46018;-88
2021/06/27 02:55:43;;;;;;;19.02;6.07;;;;;;;;;;143732;961;46012;-87
2021/06/27 02:58:09;;;;;;;24.15;6.55;;;;;;;;;;143729;983;47020;-88
2021/06/27 03:00:36;;;;;;;20.02;5.90;;;;;;;;;;143729;722;46923;-86
2021/06/27 03:03:03;;;;;;;19.58;5.60;;;;;;;;;;143731;614;46012;-86
2021/06/27 03:05:33;;;;;;;29.80;7.30;;;;;;;;;;143732;973;46013;-88
2021/06/27 03:08:00;;;;;;;26.23;6.25;;;;;;;;;;143726;864;46018;-86
2021/06/27 03:10:33;;;;;;;25.83;6.10;;;;;;;;;;143732;759;46022;-89
2021/06/27 03:13:01;;;;;;;27.87;6.75;;;;;;;;;;143731;684;46014;-86
2021/06/27 03:15:27;;;;;;;20.92;5.68;;;;;;;;;;143733;669;46022;-87
2021/06/27 03:17:54;;;;;;;19.50;6.18;;;;;;;;;;143730;569;47020;-86
2021/06/27 03:20:21;;;;;;;28.73;5.62;;;;;;;;;;143729;694;46012;-88
2021/06/27 03:22:49;;;;;;;29.02;6.75;;;;;;;;;;143729;585;47018;-86
2021/06/27 03:25:16;;;;;;;31.45;8.55;;;;;;;;;;143733;946;46012;-88
2021/06/27 03:27:43;;;;;;;22.10;7.12;;;;;;;;;;143729;571;47020;-88
2021/06/27 03:30:11;;;;;;;25.45;6.00;;;;;;;;;;143731;575;46012;-86
2021/06/27 03:32:38;;;;;;;29.60;7.03;;;;;;;;;;143725;572;46018;-85
2021/06/27 03:35:06;;;;;;;20.73;5.75;;;;;;;;;;143733;645;46013;-88
2021/06/27 03:37:33;;;;;;;29.65;7.62;;;;;;;;;;143732;566;46018;-87
2021/06/27 03:39:59;;;;;;;21.83;6.45;;;;;;;;;;143731;885;46012;-86
2021/06/27 03:42:27;;;;;;;21.75;6.12;;;;;;;;;;143733;818;46019;-87
2021/06/27 03:44:54;;;;;;;30.30;7.25;;;;;;;;;;143734;793;46012;-87
2021/06/27 03:47:21;;;;;;;32.13;7.47;;;;;;;;;;143725;580;47018;-86
2021/06/27 03:49:47;;;;;;;22.45;8.20;;;;;;;;;;143731;659;46012;-88
2021/06/27 03:52:14;;;;;;;27.20;5.30;;;;;;;;;;143727;980;47018;-87
2021/06/27 03:54:40;;;;;;;29.45;6.65;;;;;;;;;;143733;689;46012;-87
2021/06/27 03:57:07;;;;;;;18.75;5.82;;;;;;;;;;143725;973;46029;-87
2021/06/27 03:59:34;;;;;;;18.17;5.78;;;;;;;;;;143730;970;46017;-87
2021/06/27 04:02:01;;;;;;;29.02;6.55;;;;;;;;;;143731;580;47018;-88
2021/06/27 04:04:28;;;;;;;20.15;5.22;;;;;;;;;;143734;577;46012;-86
2021/06/27 04:06:55;;;;;;;25.30;5.70;;;;;;;;;;143730;776;46021;-87
2021/06/27 04:09:21;;;;;;;18.90;5.78;;;;;;;;;;143731;565;46022;-86
2021/06/27 04:11:49;;;;;;;22.33;4.97;;;;;;;;;;143734;569;46018;-86
2021/06/27 04:14:17;;;;;;;16.70;6.20;;;;;;;;;;143734;575;46023;-86
2021/06/27 04:16:45;;;;;;;23.05;5.75;;;;;;;;;;143732;705;47018;-87
2021/06/27 04:19:12;;;;;;;22.40;5.72;;;;;;;;;;143731;977;46012;-86
2021/06/27 04:21:39;;;;;;;31.58;6.53;;;;;;;;;;143724;972;46018;-86
2021/06/27 04:24:07;;;;;;;23.33;5.65;;;;;;;;;;143733;639;46012;-88
2021/06/27 04:26:33;;;;;;;23.75;7.00;;;;;;;;;;143728;596;46020;-87
2021/06/27 04:29:00;;;;;;;26.77;6.87;;;;;;;;;;143731;903;46023;-86
2021/06/27 04:31:27;;;;;;;26.17;6.20;;;;;;;;;;143733;775;46018;-88
2021/06/27 04:33:54;;;;;;;20.37;6.40;;;;;;;;;;143731;708;47013;-86
2021/06/27 04:36:21;;;;;;;26.70;6.18;;;;;;;;;;143732;789;46021;-86
2021/06/27 04:38:47;;;;;;;19.27;6.15;;;;;;;;;;143733;738;46012;-88
2021/06/27 04:41:14;;;;;;;24.33;6.05;;;;;;;;;;143732;633;47018;-86
2021/06/27 04:43:41;;;;;;;27.13;6.55;;;;;;;;;;143733;797;46012;-87
2021/06/27 04:46:08;;;;;;;20.05;6.32;;;;;;;;;;143727;928;47020;-86
2021/06/27 04:48:36;;;;;;;28.50;6.90;;;;;;;;;;143732;852;46012;-87
2021/06/27 04:51:03;;;;;;;20.75;6.03;;;;;;;;;;143734;607;46019;-88
2021/06/27 04:53:30;;;;;;;16.48;5.43;;;;;;;;;;143733;569;46012;-88
2021/06/27 04:55:58;;;;;;;20.83;6.68;;;;;;;;;;143733;641;46012;-88
2021/06/27 04:58:28;;;;;;;23.10;5.72;;;;;;;;;;143730;701;46013;-89
2021/06/27 05:00:55;;;;;;;22.77;5.40;;;;;;;;;;143733;955;46012;-88
2021/06/27 05:03:23;;;;;;;23.67;6.82;;;;;;;;;;143732;569;46022;-88
2021/06/27 05:05:52;;;;;;;24.33;5.45;;;;;;;;;;143729;585;47019;-87
2021/06/27 05:08:24;;;;;;;24.00;5.47;;;;;;;;;;143733;609;46012;-87
2021/06/27 05:10:51;;;;;;;14.55;5.40;;;;;;;;;;143725;613;46018;-87
2021/06/27 05:13:18;;;;;;;26.75;6.80;;;;;;;;;;143734;649;46019;-86
2021/06/27 05:15:45;;;;;;;28.92;6.55;;;;;;;;;;143730;565;46020;-90
2021/06/27 05:18:11;;;;;;;18.85;6.97;;;;;;;;;;143735;585;46012;-87
2021/06/27 05:20:38;;;;;;;18.58;6.95;;;;;;;;;;143731;594;47012;-87
2021/06/27 05:23:04;;;;;;;30.02;7.82;;;;;;;;;;143737;593;46010;-87
2021/06/27 05:25:31;;;;;;;30.27;7.05;;;;;;;;;;143734;652;46037;-88
2021/06/27 05:27:59;;;;;;;17.20;6.80;;;;;;;;;;143734;585;46012;-87
2021/06/27 05:30:27;;;;;;;23.95;6.43;;;;;;;;;;143733;578;46010;-87
2021/06/27 05:32:57;;;;;;;27.40;7.70;;;;;;;;;;143734;765;46022;-88
2021/06/27 05:35:25;;;;;;;25.25;6.70;;;;;;;;;;143728;596;46014;-88
2021/06/27 05:37:52;;;;;;;19.85;6.37;;;;;;;;;;143732;566;46012;-87
2021/06/27 05:40:20;;;;;;;19.30;5.75;;;;;;;;;;143731;594;46018;-87
2021/06/27 05:42:47;;;;;;;19.85;6.80;;;;;;;;;;143735;570;46012;-86
2021/06/27 05:45:14;;;;;;;24.33;6.15;;;;;;;;;;143727;683;47018;-88
2021/06/27 05:47:41;;;;;;;25.48;6.25;;;;;;;;;;143733;569;46012;-87
2021/06/27 05:50:08;;;;;;;22.83;5.68;;;;;;;;;;143731;569;46019;-85
2021/06/27 05:52:35;;;;;;;15.73;3.53;;;;;;;;;;143733;587;46014;-92
2021/06/27 05:55:01;;;;;;;16.60;5.37;;;;;;;;;;143732;689;46020;-89
2021/06/27 05:57:28;;;;;;;16.02;4.95;;;;;;;;;;143732;596;46012;-88
2021/06/27 05:59:55;;;;;;;15.40;6.20;;;;;;;;;;143724;581;47018;-89
2021/06/27 06:02:22;;;;;;;21.23;6.12;;;;;;;;;;143731;620;46022;-90
2021/06/27 06:04:48;;;;;;;19.33;5.72;;;;;;;;;;143732;573;46020;-90
2021/06/27 06:07:15;;;;;;;17.30;6.55;;;;;;;;;;143732;702;46012;-90
2021/06/27 06:09:42;;;;;;;18.42;5.97;;;;;;;;;;143736;565;46018;-91
2021/06/27 06:12:09;;;;;;;19.67;5.90;;;;;;;;;;143735;577;46012;-90
2021/06/27 06:14:36;;;;;;;20.35;4.93;;;;;;;;;;143725;587;47020;-89
2021/06/27 06:17:03;;;;;;;24.30;6.28;;;;;;;;;;143732;576;46012;-90
2021/06/27 06:19:30;;;;;;;13.18;5.55;;;;;;;;;;143733;564;46019;-89
2021/06/27 06:21:58;;;;;;;20.25;5.55;;;;;;;;;;143733;717;46012;-89
2021/06/27 06:24:25;;;;;;;21.20;5.82;;;;;;;;;;143724;568;47018;-87
2021/06/27 06:26:51;;;;;;;21.83;6.32;;;;;;;;;;143731;599;46013;-91
2021/06/27 06:29:18;;;;;;;17.70;5.15;;;;;;;;;;143729;717;46018;-90
2021/06/27 06:31:45;;;;;;;15.45;5.65;;;;;;;;;;143734;593;46010;-88
2021/06/27 06:34:11;;;;;;;19.23;5.80;;;;;;;;;;143731;595;46048;-91
2021/06/27 06:36:38;;;;;;;20.52;5.37;;;;;;;;;;143732;592;46012;-88
2021/06/27 06:39:09;;;;;;;22.23;5.55;;;;;;;;;;143729;564;47018;-87
2021/06/27 06:41:36;;;;;;;21.25;6.65;;;;;;;;;;143734;581;46012;-87
2021/06/27 06:44:04;;;;;;;34.05;6.82;;;;;;;;;;143733;693;46021;-88
2021/06/27 06:46:30;;;;;;;20.35;5.25;;;;;;;;;;143733;646;46022;-87
2021/06/27 06:49:00;;;;;;;18.75;5.75;;;;;;;;;;143726;583;46019;-89
2021/06/27 06:51:27;;;;;;;22.17;6.80;;;;;;;;;;143734;577;46012;-87
2021/06/27 06:53:55;;;;;;;14.38;4.68;;;;;;;;;;143735;578;47018;-87
2021/06/27 06:56:22;;;;;;;23.65;7.22;;;;;;;;;;143732;586;46923;-90
2021/06/27 06:58:49;;;;;;;25.25;5.78;;;;;;;;;;143734;585;46018;-88
2021/06/27 07:01:17;;;;;;;17.98;5.12;;;;;;;;;;143735;676;46012;-88
2021/06/27 07:03:45;;;;;;;20.55;6.78;;;;;;;;;;143733;580;46020;-87
2021/06/27 07:06:13;;;;;;;18.45;5.22;;;;;;;;;;143731;733;46012;-88
2021/06/27 07:08:39;;;;;;;14.52;5.35;;;;;;;;;;143735;575;46018;-90
2021/06/27 07:11:07;;;;;;;17.37;5.12;;;;;;;;;;143736;710;46013;-88
2021/06/27 07:13:34;;;;;;;23.75;5.37;;;;;;;;;;143722;637;47021;-86
2021/06/27 07:16:01;;;;;;;20.85;5.50;;;;;;;;;;143731;582;46012;-87
2021/06/27 07:18:28;;;;;;;14.98;5.53;;;;;;;;;;143735;631;47019;-86
2021/06/27 07:20:55;;;;;;;17.60;5.95;;;;;;;;;;143734;589;46012;-88
2021/06/27 07:23:21;;;;;;;17.20;6.22;;;;;;;;;;143734;624;46047;-87
2021/06/27 07:25:48;;;;;;;15.85;6.15;;;;;;;;;;143730;565;46013;-89
2021/06/27 07:28:15;;;;;;;27.80;6.70;;;;;;;;;;143732;565;46019;-87
2021/06/27 07:30:42;;;;;;;16.92;5.28;;;;;;;;;;143735;566;46012;-86
2021/06/27 07:33:09;;;;;;;23.85;5.72;;;;;;;;;;143731;583;46020;-90
2021/06/27 07:35:35;;;;;;;23.15;6.53;;;;;;;;;;143733;571;46012;-88
2021/06/27 07:38:02;;;;;;;14.43;4.87;;;;;;;;;;143726;587;46914;-89
2021/06/27 07:40:29;;;;;;;17.98;6.30;;;;;;;;;;143735;570;46012;-88
2021/06/27 07:42:58;;;;;;;22.98;6.62;;;;;;;;;;143732;659;47021;-89
2021/06/27 07:45:24;;;;;;;17.67;5.53;;;;;;;;;;143732;571;46012;-89
2021/06/27 07:47:51;;;;;;;18.30;5.30;;;;;;;;;;143735;622;46019;-88
2021/06/27 07:50:18;;;;;;;15.98;6.20;;;;;;;;;;143735;712;46012;-87
2021/06/27 07:52:44;;;;;;;23.08;6.25;;;;;;;;;;143733;572;46020;-87
2021/06/27 07:55:12;;;;;;;16.50;5.37;;;;;;;;;;143734;592;46013;-88
2021/06/27 07:57:40;;;;;;;17.83;5.95;;;;;;;;;;143732;611;46019;-90
2021/06/27 08:00:09;;;;;;;19.62;6.05;;;;;;;;;;143738;606;45022;-88
2021/06/27 08:02:37;;;;;;;14.48;5.20;;;;;;;;;;143725;564;46020;-87
2021/06/27 08:05:05;;;;;;;20.67;5.68;;;;;;;;;;143730;631;46012;-90
2021/06/27 08:07:32;;;;;;;22.35;5.18;;;;;;;;;;143734;612;46018;-89
2021/06/27 08:10:05;;;;;;;14.40;5.07;;;;;;;;;;143734;574;46022;-88
2021/06/27 08:12:32;;;;;;;18.65;5.62;;;;;;;;;;143733;581;47021;-87
2021/06/27 08:15:00;;;;;;;20.73;5.22;;;;;;;;;;143732;564;46012;-88
2021/06/27 08:17:27;;;;;;;13.02;5.95;;;;;;;;;;143732;573;47018;-87
2021/06/27 08:19:57;;;;;;;12.15;5.10;;;;;;;;;;143734;664;46012;-88
2021/06/27 08:22:24;;;;;;;12.05;5.55;;;;;;;;;;143732;575;46020;-89
2021/06/27 08:24:51;;;;;;;18.70;6.53;;;;;;;;;;143731;565;46012;-88
2021/06/27 08:27:18;;;;;;;20.77;5.75;;;;;;;;;;143727;597;46019;-88
2021/06/27 08:29:45;;;;;;;15.85;7.18;;;;;;;;;;143734;572;46012;-88
2021/06/27 08:32:12;;;;;;;13.55;5.22;;;;;;;;;;143732;627;46020;-88
2021/06/27 08:34:39;;;;;;;18.80;6.32;;;;;;;;;;143733;569;46052;-88
2021/06/27 08:37:07;;;;;;;12.10;4.97;;;;;;;;;;143734;573;46018;-88
2021/06/27 08:39:34;;;;;;;17.08;5.78;;;;;;;;;;143734;572;46012;-88
2021/06/27 08:42:01;;;;;;;14.32;5.20;;;;;;;;;;143730;649;47021;-90
2021/06/27 08:44:28;;;;;;;12.65;4.57;;;;;;;;;;143732;581;46012;-87
2021/06/27 08:46:56;;;;;;;12.98;5.25;;;;;;;;;;143733;576;45588;-87
2021/06/27 08:49:23;;;;;;;17.92;5.00;;;;;;;;;;143733;707;46023;-87
2021/06/27 08:51:51;;;;;;;16.92;5.37;;;;;;;;;;143721;582;47020;-86
2021/06/27 08:54:17;;;;;;;23.70;5.32;;;;;;;;;;143729;636;46013;-87
2021/06/27 08:56:45;;;;;;;17.55;6.43;;;;;;;;;;143729;663;46019;-87
2021/06/27 08:59:12;;;;;;;15.25;5.25;;;;;;;;;;143731;579;46012;-89
2021/06/27 09:01:40;;;;;;;16.55;6.78;;;;;;;;;;143731;762;47018;-89
2021/06/27 09:04:06;;;;;;;22.37;5.43;;;;;;;;;;143729;598;46012;-88
2021/06/27 09:06:36;;;;;;;18.73;5.40;;;;;;;;;;143729;597;48016;-88
2021/06/27 09:09:13;;;;;;;18.00;4.72;;;;;;;;;;143732;614;46012;-88
2021/06/27 09:11:55;;;;;;;16.73;5.47;;;;;;;;;;143729;691;46021;-88
2021/06/27 09:14:47;;;;;;;18.63;5.50;;;;;;;;;;143730;582;46012;-88
2021/06/27 09:17:16;;;;;;;20.80;6.40;;;;;;;;;;143726;595;46017;-87
2021/06/27 09:20:09;;;;;;;20.62;5.68;;;;;;;;;;143731;586;46012;-88
2021/06/27 09:22:38;;;;;;;21.65;6.32;;;;;;;;;;143730;583;46022;-89
2021/06/27 09:25:37;;;;;;;20.62;5.93;;;;;;;;;;143729;583;46013;-86
2021/06/27 09:28:13;;;;;;;27.75;6.05;;;;;;;;;;143731;567;47012;-88
2021/06/27 09:30:57;;;;;;;21.83;5.95;;;;;;;;;;143732;586;46020;-89
2021/06/27 09:33:29;;;;;;;18.40;5.45;;;;;;;;;;143733;619;46044;-89
2021/06/27 09:36:15;;;;;;;14.60;5.53;;;;;;;;;;143731;590;46012;-89
2021/06/27 09:38:50;;;;;;;18.12;5.62;;;;;;;;;;143730;696;46018;-89
2021/06/27 09:41:24;;;;;;;20.33;5.70;;;;;;;;;;143733;570;46012;-89
2021/06/27 09:43:58;;;;;;;19.37;6.07;;;;;;;;;;143725;581;46020;-90
2021/06/27 09:46:44;;;;;;;20.05;6.35;;;;;;;;;;143723;571;47012;-90
2021/06/27 09:49:16;;;;;;;23.70;6.10;;;;;;;;;;143726;603;47019;-90
2021/06/27 09:51:50;;;;;;;19.77;4.78;;;;;;;;;;143730;582;46012;-89
2021/06/27 09:54:19;;;;;;;16.50;5.90;;;;;;;;;;143728;576;47018;-91
2021/06/27 09:56:46;;;;;;;21.33;6.57;;;;;;;;;;143730;570;46012;-90
2021/06/27 09:59:17;;;;;;;19.75;5.65;;;;;;;;;;143724;597;47018;-89
2021/06/27 10:01:44;;;;;;;19.85;6.60;;;;;;;;;;143731;591;46012;-88
2021/06/27 10:04:29;;;;;;;18.08;5.72;;;;;;;;;;143725;615;46042;-89
2021/06/27 10:06:58;;;;;;;25.48;7.93;;;;;;;;;;143729;766;46920;-91
2021/06/27 10:09:35;;;;;;;19.30;7.03;;;;;;;;;;143721;716;47019;-91
2021/06/27 10:12:05;;;;;;;16.67;5.53;;;;;;;;;;143730;601;46012;-91
2021/06/27 10:14:56;;;;;;;20.23;6.28;;;;;;;;;;143731;584;46018;-91
2021/06/27 10:17:26;;;;;;;18.90;6.25;;;;;;;;;;143729;564;46012;-91
2021/06/27 10:19:59;;;;;;;19.40;6.03;;;;;;;;;;143728;574;47018;-89
2021/06/27 10:22:26;;;;;;;14.65;5.78;;;;;;;;;;143728;588;46012;-90
2021/06/27 10:24:54;;;;;;;29.08;8.73;;;;;;;;;;143727;614;47019;-89
2021/06/27 10:27:23;;;;;;;14.35;5.57;;;;;;;;;;143730;564;46012;-91
2021/06/27 10:29:50;;;;;;;20.25;6.62;;;;;;;;;;143727;569;47018;-92
2021/06/27 10:32:19;;;;;;;15.35;5.55;;;;;;;;;;143730;715;46022;-92
2021/06/27 10:34:46;;;;;;;13.25;5.37;;;;;;;;;;143721;589;47021;-89
2021/06/27 10:37:19;;;;;;;22.45;6.85;;;;;;;;;;143729;626;46022;-89
2021/06/27 10:40:06;;;;;;;17.45;5.87;;;;;;;;;;143728;578;47018;-91
2021/06/27 10:42:56;;;;;;;25.80;6.18;;;;;;;;;;143731;712;46012;-90
2021/06/27 10:46:10;;;;;;;22.62;7.00;;;;;;;;;;143727;572;47020;-92
2021/06/27 10:48:38;;;;;;;20.77;6.28;;;;;;;;;;143730;570;46921;-91
2021/06/27 10:51:08;;;;;;;17.77;6.28;;;;;;;;;;143725;585;47018;-90
2021/06/27 10:54:11;;;;;;;18.40;5.87;;;;;;;;;;143729;592;46022;-91
2021/06/27 10:56:59;;;;;;;18.50;6.15;;;;;;;;;;143724;572;47018;-89
2021/06/27 10:59:57;;;;;;;13.73;5.72;;;;;;;;;;143727;638;46922;-91
2021/06/27 11:02:43;;;;;;;16.17;5.90;;;;;;;;;;143728;586;45019;-89
2021/06/27 11:05:36;;;;;;;19.70;6.07;;;;;;;;;;143730;595;46010;-88
2021/06/27 11:08:04;;;;;;;19.95;6.37;;;;;;;;;;143724;592;47018;-90
2021/06/27 11:10:33;;;;;;;15.65;5.40;;;;;;;;;;143726;584;46013;-91
2021/06/27 11:13:19;;;;;;;19.70;6.37;;;;;;;;;;143726;565;46018;-93
2021/06/27 11:16:10;;;;;;;21.33;5.93;;;;;;;;;;143728;576;46012;-90
2021/06/27 11:18:44;;;;;;;18.33;6.35;;;;;;;;;;143729;584;47023;-90
2021/06/27 11:21:43;;;;;;;13.93;5.28;;;;;;;;;;143727;616;47022;-90
2021/06/27 11:24:10;;;;;;;22.30;6.12;;;;;;;;;;143730;587;47018;-89
2021/06/27 11:26:55;;;;;;;20.48;5.72;;;;;;;;;;143732;577;46012;-88
2021/06/27 11:29:41;;;;;;;18.70;6.30;;;;;;;;;;143720;610;47018;-92
2021/06/27 11:32:37;;;;;;;33.40;8.38;;;;;;;;;;143729;583;46013;-91
2021/06/27 11:35:05;;;;;;;17.50;5.28;;;;;;;;;;143728;627;47018;-89
2021/06/27 11:37:49;;;;;;;24.48;6.20;;;;;;;;;;143730;569;46020;-91
2021/06/27 11:40:37;;;;;;;18.65;6.05;;;;;;;;;;143725;587;47023;-91
2021/06/27 11:43:05;;;;;;;20.90;6.00;;;;;;;;;;143728;583;46923;-91
2021/06/27 11:45:43;;;;;;;16.62;6.28;;;;;;;;;;143725;564;46012;-88
2021/06/27 11:48:13;;;;;;;19.08;6.78;;;;;;;;;;143730;608;46012;-90
2021/06/27 11:50:48;;;;;;;14.63;6.25;;;;;;;;;;143723;570;46042;-91
2021/06/27 11:53:15;;;;;;;18.92;6.10;;;;;;;;;;143729;590;46013;-92
2021/06/27 11:55:48;;;;;;;12.85;5.28;;;;;;;;;;143723;578;46042;-90
2021/06/27 11:58:25;;;;;;;16.70;5.25;;;;;;;;;;143726;573;46012;-91
2021/06/27 12:00:52;;;;;;;21.00;6.20;;;;;;;;;;143723;660;47018;-93
2021/06/27 12:03:22;;;;;;;19.95;5.78;;;;;;;;;;143725;585;46012;-92
2021/06/27 12:05:57;;;;;;;20.15;6.28;;;;;;;;;;143730;578;47018;-91
2021/06/27 12:08:25;;;;;;;19.55;5.55;;;;;;;;;;143730;584;46012;-92
2021/06/27 12:10:57;;;;;;;23.05;5.95;;;;;;;;;;143728;564;47018;-88
2021/06/27 12:13:24;;;;;;;;;;;;;;;;;;143733;978;46012;-89
2021/06/27 12:15:55;;;;;;;25.75;6.00;;;;;;;;;;143736;599;46018;-90
2021/06/27 12:18:27;;;;;;;20.12;6.85;;;;;;;;;;143730;575;46013;-89
2021/06/27 12:21:00;;;;;;;;;;;;;;;;;;143725;982;47018;-88
2021/06/27 12:23:42;;;;;;;24.40;7.85;;;;;;;;;;143735;657;46931;-91
2021/06/27 12:26:11;;;;;;;20.37;5.68;;;;;;;;;;143727;587;46044;-91
2021/06/27 12:28:47;;;;;;;18.60;5.72;;;;;;;;;;143730;586;46012;-89
2021/06/27 12:31:20;;;;;;;18.60;6.90;;;;;;;;;;143722;567;47020;-90
2021/06/27 12:34:02;;;;;;;26.20;6.30;;;;;;;;;;143729;610;46012;-91
2021/06/27 12:36:32;;;;;;;14.10;5.40;;;;;;;;;;143730;659;47018;-89
2021/06/27 12:39:17;;;;;;;24.23;5.43;;;;;;;;;;143732;571;46013;-90
2021/06/27 12:41:45;;;;;;;30.05;6.15;;;;;;;;;;143730;602;46021;-90
2021/06/27 12:44:16;;;;;;;16.27;7.03;;;;;;;;;;143729;589;46012;-89
2021/06/27 12:46:44;;;;;;;19.48;4.30;;;;;;;;;;143723;586;47019;-90
2021/06/27 12:49:17;;;;;;;29.87;6.55;;;;;;;;;;143731;567;46014;-90
2021/06/27 12:51:50;;;;;;;16.25;6.72;;;;;;;;;;143729;593;47020;-92
2021/06/27 12:54:24;;;;;;;20.48;5.70;;;;;;;;;;143728;639;47023;-92
2021/06/27 12:57:22;;;;;;;20.08;5.22;;;;;;;;;;143723;565;47018;-89
2021/06/27 12:59:57;;;;;;;23.58;5.97;;;;;;;;;;143729;578;46012;-89
2021/06/27 13:02:47;;;;;;;16.27;5.28;;;;;;;;;;143730;586;46013;-90
2021/06/27 13:05:16;;;;;;;13.43;6.00;;;;;;;;;;143727;616;46922;-91
2021/06/27 13:07:50;;;;;;;18.83;5.03;;;;;;;;;;143728;587;46018;-88
2021/06/27 13:10:25;;;;;;;18.73;5.10;;;;;;;;;;143727;596;47020;-89
2021/06/27 13:13:06;;;;;;;22.83;7.82;;;;;;;;;;143722;663;47018;-88
2021/06/27 13:15:38;;;;;;;13.70;4.68;;;;;;;;;;143727;618;46013;-88
2021/06/27 13:18:16;;;;;;;;;;;;;;;;;;143735;968;46012;-88
2021/06/27 13:20:47;;;;;;;13.95;5.82;;;;;;;;;;143737;654;46012;-90
2021/06/27 13:23:16;;;;;;;19.87;5.80;;;;;;;;;;143726;567;46045;-91
2021/06/27 13:25:46;;;;;;;16.15;5.72;;;;;;;;;;143726;569;47012;-88
2021/06/27 13:28:18;;;;;;;19.17;5.95;;;;;;;;;;143730;569;46018;-90
2021/06/27 13:31:03;;;;;;;24.00;5.95;;;;;;;;;;143732;586;46022;-93
2021/06/27 13:33:56;;;;;;;15.00;5.95;;;;;;;;;;143730;637;46018;-91
2021/06/27 13:36:28;;;;;;;20.58;6.70;;;;;;;;;;143730;579;46022;-91
2021/06/27 13:38:57;;;;;;;16.80;5.95;;;;;;;;;;143723;567;46019;-94
2021/06/27 13:41:26;;;;;;;25.88;6.20;;;;;;;;;;143728;591;47022;-93
2021/06/27 13:43:59;;;;;;;20.60;7.37;;;;;;;;;;143727;601;46014;-90
2021/06/27 13:46:25;;;;;;;;;;;;;;;;;;143729;971;46920;-90
2021/06/27 13:49:06;;;;;;;;;;;;;;;;;;;;;
2021/06/27 13:51:37;;;;;;;19.15;6.12;;;;;;;;;;143728;613;46024;-91
2021/06/27 13:54:06;;;;;;;18.20;6.03;;;;;;;;;;143729;617;46046;-93
2021/06/27 13:56:33;;;;;;;16.23;5.68;;;;;;;;;;143726;585;46012;-90
2021/06/27 13:59:00;;;;;;;24.30;6.95;;;;;;;;;;143727;586;47018;-89
2021/06/27 14:01:30;;;;;;;20.25;6.72;;;;;;;;;;143730;590;46010;-90
2021/06/27 14:03:58;;;;;;;22.52;7.20;;;;;;;;;;143720;605;47021;-89
2021/06/27 14:06:28;;;;;;;21.35;5.75;;;;;;;;;;143726;585;46012;-91
2021/06/27 14:08:57;;;;;;;44.78;6.40;;;;;;;;;;143727;641;47019;-91
2021/06/27 14:11:24;;;;;;;24.92;6.80;;;;;;;;;;143729;573;46012;-89
2021/06/27 14:13:51;;;;;;;17.40;6.12;;;;;;;;;;143722;578;47020;-91
2021/06/27 14:16:18;;;;;;;21.23;6.95;;;;;;;;;;143724;634;46013;-91
2021/06/27 14:18:45;;;;;;;16.67;6.30;;;;;;;;;;143722;641;47018;-92
2021/06/27 14:21:13;;;;;;;19.87;6.03;;;;;;;;;;143729;574;46012;-91
2021/06/27 14:23:41;;;;;;;22.52;5.95;;;;;;;;;;143725;581;47020;-91
2021/06/27 14:26:07;;;;;;;26.10;7.03;;;;;;;;;;143728;591;46012;-90
2021/06/27 14:28:34;;;;;;;20.92;7.75;;;;;;;;;;143721;608;46018;-91
2021/06/27 14:31:02;;;;;;;20.98;6.65;;;;;;;;;;143727;578;47022;-90
2021/06/27 14:33:28;;;;;;;24.33;6.20;;;;;;;;;;143724;577;47020;-90
2021/06/27 14:35:59;;;;;;;25.45;5.87;;;;;;;;;;143727;587;46012;-91
2021/06/27 14:38:25;;;;;;;19.35;5.50;;;;;;;;;;143726;574;46019;-90
2021/06/27 14:40:53;;;;;;;22.73;6.35;;;;;;;;;;143728;578;46012;-90
2021/06/27 14:43:19;;;;;;;21.83;6.22;;;;;;;;;;143724;630;47020;-89
2021/06/27 14:45:50;;;;;;;21.00;5.90;;;;;;;;;;143728;619;46012;-92
2021/06/27 14:48:17;;;;;;;22.45;7.25;;;;;;;;;;143726;612;47018;-88
2021/06/27 14:50:54;;;;;;;16.83;5.57;;;;;;;;;;143730;565;46010;-93
2021/06/27 14:53:21;;;;;;;22.13;6.00;;;;;;;;;;143727;654;45915;-94